Portada
METAR-TAF:

METAR-TAF

Aeroports :

Annaba, Algèria

latitud: 36-50N, longitud: 007-49E, altitud: 4 m

Observació

L'informe es va fer fa 39 minuts, a les 02:00 UTC
Vent calma
Temperatura 19°C
Humitat 94%
Pressió 1012 hPa
Visibilitat 10 km o més
sense núvols per sota de 1500 mi sense presència de cumulonimbus.

METAR: DABB 160200Z 00000KT CAVOK 19/18 Q1012

Hora: 03:39 (02:39 UTC)

Pronòstic

L'informe es va fer fa 3 hores i 39 minuts, a les 23:00 UTC
Pronòstic vàlid del 16 a les 00 UTC al 16 a les 24 UTC
Vent 8 kt del Est/Nord-Est
Visibilitat 10 km o més
Escasses núvols a una alçada de 2300 ft
Núvols disperses a una alçada de 20000 ft
Probabilitat 30% :
Temporalment
l' 16 a les 12 UTC al 16 a les 18 UTC
Escasses núvols a una alçada de 2600 ft, Cumulus congestus.

TAF: DABB 152300Z 1600/1624 06008KT 9999 FEW023 SCT200 PROB30 TEMPO 1612/1618 FEW026TCU

Observacions i pronòstics meteorològics de més de 4000 aeroports (METAR i TAF).

Les estacions disponibles són els punts grocs i vermells al mapa.

Posi el ratolí al punt desitjat per veure el nom de l'estació.

Feu clic per veure les observacions i els pronòstics meteorològics.

Per canviar el mapa: feu clic els botons verds amb una creu de color negre per apropar; al botó verd amb un guió per allunyar la imatge; o en les fletxes verdes per a mapes adjacents.


METAR-TAF: